createdAt,value
2022-12-01T00:01:21.425Z,8.53
2022-12-01T00:03:50.370Z,8.55
2022-12-01T00:06:19.940Z,8.53
2022-12-01T00:09:08.379Z,8.59
2022-12-01T00:11:37.230Z,8.57
2022-12-01T00:14:05.347Z,8.59
2022-12-01T00:16:33.625Z,8.57
2022-12-01T00:19:02.764Z,8.60
2022-12-01T00:21:30.462Z,8.68
2022-12-01T00:23:59.022Z,8.56
2022-12-01T00:26:28.090Z,8.59
2022-12-01T00:28:57.571Z,8.59
2022-12-01T00:31:25.770Z,8.61
2022-12-01T00:33:56.782Z,8.63
2022-12-01T00:36:26.040Z,8.60
2022-12-01T00:38:55.283Z,8.59
2022-12-01T00:41:23.955Z,8.57
2022-12-01T00:43:52.418Z,8.57
2022-12-01T00:46:20.103Z,8.51
2022-12-01T00:48:47.760Z,8.56
2022-12-01T00:51:15.307Z,8.55
2022-12-01T00:53:44.175Z,8.56
2022-12-01T00:56:11.737Z,8.59
2022-12-01T00:58:39.257Z,8.49
2022-12-01T01:01:07.330Z,8.49
2022-12-01T01:03:35.583Z,8.57
2022-12-01T01:06:07.562Z,8.54
2022-12-01T01:08:35.247Z,8.55
2022-12-01T01:11:05.456Z,8.51
2022-12-01T01:13:33.418Z,8.56
2022-12-01T01:16:03.032Z,8.53
2022-12-01T01:18:31.008Z,8.47
2022-12-01T01:20:58.977Z,8.48
2022-12-01T01:23:27.349Z,8.50
2022-12-01T01:25:54.949Z,8.53
2022-12-01T01:28:23.905Z,8.63
2022-12-01T01:30:51.479Z,8.63
2022-12-01T01:33:18.981Z,8.67
2022-12-01T01:35:46.481Z,8.59
2022-12-01T01:38:14.075Z,8.62
2022-12-01T01:40:44.030Z,8.60
2022-12-01T01:43:15.959Z,8.58
2022-12-01T01:45:45.428Z,8.69
2022-12-01T01:48:14.400Z,8.60
2022-12-01T01:50:42.499Z,8.57
2022-12-01T01:53:13.475Z,8.57
2022-12-01T01:55:41.062Z,8.56
2022-12-01T01:58:11.093Z,8.61
2022-12-01T02:00:40.106Z,8.58
2022-12-01T02:03:10.514Z,8.55
2022-12-01T02:05:38.971Z,8.60
2022-12-01T02:08:12.191Z,8.54
2022-12-01T02:10:57.337Z,8.52
2022-12-01T02:13:34.596Z,8.43
2022-12-01T02:16:10.887Z,8.51
2022-12-01T02:18:51.268Z,8.60
2022-12-01T02:21:38.577Z,8.53
2022-12-01T02:24:39.674Z,8.56
2022-12-01T02:27:20.873Z,8.61
2022-12-01T02:30:07.087Z,8.55
2022-12-01T02:32:49.835Z,8.57
2022-12-01T02:35:24.375Z,8.51
2022-12-01T02:38:08.056Z,8.52
2022-12-01T02:40:42.287Z,8.60
2022-12-01T02:43:17.144Z,8.54
2022-12-01T02:45:49.614Z,8.50
2022-12-01T02:48:24.576Z,8.56
2022-12-01T02:50:54.663Z,8.54
2022-12-01T02:53:22.409Z,8.41
2022-12-01T02:55:52.957Z,8.46
2022-12-01T02:58:21.040Z,8.41
2022-12-01T03:01:18.128Z,8.42
2022-12-01T03:04:01.588Z,8.42
2022-12-01T03:06:40.970Z,8.38
2022-12-01T03:09:17.178Z,8.48
2022-12-01T03:11:51.522Z,8.42
2022-12-01T03:14:30.065Z,8.45
2022-12-01T03:16:59.761Z,8.48
2022-12-01T03:19:36.410Z,8.38
2022-12-01T03:22:09.817Z,8.45
2022-12-01T03:24:39.790Z,8.43
2022-12-01T03:27:09.766Z,8.44
2022-12-01T03:29:41.267Z,8.48
2022-12-01T03:32:15.559Z,8.43
2022-12-01T03:34:50.830Z,8.46
2022-12-01T03:37:22.562Z,8.43
2022-12-01T03:39:58.752Z,8.30
2022-12-01T03:42:32.815Z,8.29
2022-12-01T03:45:04.894Z,8.41
2022-12-01T03:47:35.571Z,8.46
2022-12-01T03:50:06.781Z,8.49
2022-12-01T03:52:44.817Z,8.43
2022-12-01T03:55:18.646Z,8.51
2022-12-01T03:57:51.154Z,8.52
2022-12-01T04:00:20.478Z,8.60
2022-12-01T04:02:48.858Z,8.53
2022-12-01T04:05:22.475Z,8.50
2022-12-01T04:07:53.167Z,8.47
2022-12-01T04:10:20.837Z,8.50
2022-12-01T04:12:47.452Z,8.48
2022-12-01T04:15:16.598Z,8.45
2022-12-01T04:17:45.501Z,8.23
2022-12-01T04:20:15.211Z,8.35
2022-12-01T04:22:44.317Z,8.38
2022-12-01T04:25:12.509Z,8.38
2022-12-01T04:27:40.009Z,8.41
2022-12-01T04:30:09.059Z,8.36
2022-12-01T04:32:39.053Z,8.28
2022-12-01T04:35:07.647Z,8.28
2022-12-01T04:37:35.227Z,8.39
2022-12-01T04:40:05.704Z,8.17
2022-12-01T04:42:33.368Z,8.30
2022-12-01T04:45:00.927Z,8.27
2022-12-01T04:47:28.549Z,8.31
2022-12-01T04:49:56.207Z,8.30
2022-12-01T04:52:23.800Z,8.31
2022-12-01T04:54:51.278Z,8.35
2022-12-01T04:57:20.104Z,8.36
2022-12-01T04:59:47.974Z,8.42
2022-12-01T05:02:15.975Z,8.40
2022-12-01T05:04:46.045Z,8.42
2022-12-01T05:07:13.572Z,8.35
2022-12-01T05:09:41.062Z,8.39
2022-12-01T05:12:08.660Z,8.36
2022-12-01T05:14:37.529Z,8.38
2022-12-01T05:17:05.080Z,8.43
2022-12-01T05:19:50.435Z,8.35
2022-12-01T05:22:26.985Z,8.34
2022-12-01T05:25:06.094Z,8.31
2022-12-01T05:27:33.598Z,8.22
2022-12-01T05:30:02.479Z,8.24
2022-12-01T05:32:30.002Z,8.27
2022-12-01T05:34:57.499Z,8.24
2022-12-01T05:37:25.012Z,8.30
2022-12-01T05:39:52.504Z,8.31
2022-12-01T05:42:19.987Z,8.29
2022-12-01T05:44:47.480Z,8.28
2022-12-01T05:47:16.317Z,8.30
2022-12-01T05:49:43.788Z,8.32
2022-12-01T05:52:11.430Z,8.28
2022-12-01T05:54:38.958Z,8.26
2022-12-01T05:57:06.472Z,8.34
2022-12-01T05:59:34.173Z,8.39
2022-12-01T06:02:01.811Z,8.35
2022-12-01T06:04:30.808Z,8.43
2022-12-01T06:06:58.344Z,8.31
2022-12-01T06:09:26.099Z,8.29
2022-12-01T06:11:53.664Z,8.15
2022-12-01T06:14:21.179Z,8.17
2022-12-01T06:16:48.752Z,8.22
2022-12-01T06:19:16.277Z,8.32
2022-12-01T06:21:45.126Z,8.21
2022-12-01T06:24:12.917Z,8.03
2022-12-01T06:26:40.452Z,7.95
2022-12-01T06:29:07.942Z,7.98
2022-12-01T06:31:35.457Z,8.07
2022-12-01T06:34:02.959Z,8.04
2022-12-01T06:36:30.499Z,7.90
2022-12-01T06:38:59.359Z,7.99
2022-12-01T06:41:26.875Z,8.05
2022-12-01T06:43:54.710Z,8.00
2022-12-01T06:46:22.346Z,8.08
2022-12-01T06:48:49.961Z,8.10
2022-12-01T06:51:17.435Z,8.19
2022-12-01T06:53:44.913Z,8.17
2022-12-01T06:56:13.813Z,8.17
2022-12-01T06:58:41.570Z,7.77
2022-12-01T07:01:10.543Z,7.93
2022-12-01T07:03:38.183Z,8.00
2022-12-01T07:06:06.601Z,8.07
2022-12-01T07:08:34.116Z,8.12
2022-12-01T07:11:03.893Z,8.08
2022-12-01T07:13:34.002Z,8.12
2022-12-01T07:16:02.493Z,8.12
2022-12-01T07:18:30.027Z,8.09
2022-12-01T07:21:01.065Z,8.17
2022-12-01T07:23:28.579Z,8.12
2022-12-01T07:25:59.789Z,8.13
2022-12-01T07:28:28.287Z,8.26
2022-12-01T07:31:02.536Z,8.28
2022-12-01T07:33:30.056Z,8.26
2022-12-01T07:35:57.555Z,8.24
2022-12-01T07:38:25.353Z,8.22
2022-12-01T07:40:52.825Z,8.20
2022-12-01T07:43:20.307Z,8.14
2022-12-01T07:45:48.025Z,8.13
2022-12-01T07:48:16.889Z,8.20
2022-12-01T07:50:44.393Z,8.10
2022-12-01T07:53:11.899Z,8.20
2022-12-01T07:55:39.332Z,8.15
2022-12-01T07:58:07.031Z,8.00
2022-12-01T08:00:34.567Z,7.96
2022-12-01T08:03:02.128Z,8.10
2022-12-01T08:05:31.046Z,8.00
2022-12-01T08:07:58.600Z,7.89
2022-12-01T08:10:26.225Z,7.77
2022-12-01T08:12:54.821Z,7.57
2022-12-01T08:15:22.372Z,7.61
2022-12-01T08:17:49.886Z,7.71
2022-12-01T08:20:23.533Z,7.80
2022-12-01T08:22:52.975Z,7.60
2022-12-01T08:25:20.417Z,7.76
2022-12-01T08:27:47.878Z,7.90
2022-12-01T08:30:15.568Z,7.89
2022-12-01T08:32:43.075Z,7.96
2022-12-01T08:35:10.939Z,7.99
2022-12-01T08:37:38.429Z,8.08
2022-12-01T08:40:08.997Z,8.12
2022-12-01T08:42:36.440Z,8.19
2022-12-01T08:45:04.068Z,8.19
2022-12-01T08:47:31.729Z,8.11
2022-12-01T08:49:59.383Z,8.10
2022-12-01T08:52:26.897Z,8.07
2022-12-01T08:54:54.727Z,8.19
2022-12-01T08:57:23.553Z,8.23
2022-12-01T08:59:51.496Z,8.22
2022-12-01T09:02:23.194Z,8.21
2022-12-01T09:04:51.168Z,8.12
2022-12-01T09:07:26.049Z,8.00
2022-12-01T09:09:54.023Z,8.10
2022-12-01T09:12:23.353Z,8.01
2022-12-01T09:14:50.808Z,8.03
2022-12-01T09:17:18.705Z,8.12
2022-12-01T09:19:46.370Z,8.18
2022-12-01T09:22:13.990Z,8.09
2022-12-01T09:24:41.465Z,8.09
2022-12-01T09:27:11.001Z,8.11
2022-12-01T09:29:39.800Z,8.17
2022-12-01T09:32:07.480Z,8.22
2022-12-01T09:34:34.939Z,8.15
2022-12-01T09:37:02.397Z,8.04
2022-12-01T09:39:29.898Z,8.12
2022-12-01T09:42:01.499Z,8.12
2022-12-01T09:44:38.269Z,8.02
2022-12-01T09:47:14.649Z,8.05
2022-12-01T09:49:51.273Z,8.08
2022-12-01T09:52:20.747Z,8.18
2022-12-01T09:54:48.861Z,8.22
2022-12-01T09:57:21.596Z,8.18
2022-12-01T09:59:49.654Z,8.25
2022-12-01T10:02:35.001Z,8.20
2022-12-01T10:05:07.437Z,8.25
2022-12-01T10:07:40.402Z,8.27
2022-12-01T10:10:14.306Z,8.20
2022-12-01T10:12:44.174Z,8.10
2022-12-01T10:15:33.126Z,8.16
2022-12-01T10:18:15.337Z,8.15
2022-12-01T10:20:49.544Z,8.18
2022-12-01T10:23:34.912Z,8.22
2022-12-01T10:26:14.024Z,8.33
2022-12-01T10:28:59.028Z,8.32
2022-12-01T10:31:34.455Z,8.42
2022-12-01T10:34:07.028Z,8.41
2022-12-01T10:36:35.356Z,8.12
2022-12-01T10:39:05.207Z,8.22
2022-12-01T10:41:36.363Z,8.17
2022-12-01T10:44:06.912Z,8.25
2022-12-01T10:46:40.556Z,8.29
2022-12-01T10:49:12.116Z,8.35
2022-12-01T10:51:54.631Z,8.49
2022-12-01T10:54:23.196Z,8.49
2022-12-01T10:56:56.024Z,8.46
2022-12-01T10:59:28.065Z,8.52
2022-12-01T11:01:56.387Z,8.45
2022-12-01T11:04:34.269Z,8.49
2022-12-01T11:07:02.095Z,8.44
2022-12-01T11:09:30.961Z,8.49
2022-12-01T11:12:00.440Z,8.50
2022-12-01T11:14:36.328Z,8.59
2022-12-01T11:17:17.239Z,8.63
2022-12-01T11:19:46.303Z,8.70
2022-12-01T11:22:23.413Z,8.75
2022-12-01T11:24:59.352Z,8.81
2022-12-01T11:27:30.505Z,8.88
2022-12-01T11:30:02.593Z,8.92
2022-12-01T11:32:32.208Z,8.88
2022-12-01T11:35:04.064Z,8.86
2022-12-01T11:37:37.158Z,8.87
2022-12-01T11:40:14.812Z,8.91
2022-12-01T11:42:44.052Z,8.92
2022-12-01T11:45:25.749Z,8.83
2022-12-01T11:48:02.545Z,8.81
2022-12-01T11:50:34.457Z,8.74
2022-12-01T11:53:02.549Z,8.76
2022-12-01T11:55:31.590Z,8.70
2022-12-01T11:58:05.003Z,8.70
2022-12-01T12:00:45.198Z,8.70
2022-12-01T12:03:21.899Z,8.78
2022-12-01T12:06:38.483Z,8.75
2022-12-01T12:09:03.874Z,8.78
2022-12-01T12:11:44.395Z,8.81
2022-12-01T12:14:30.619Z,8.80
2022-12-01T12:17:22.951Z,8.84
2022-12-01T12:20:21.845Z,8.84
2022-12-01T12:23:03.361Z,8.89
2022-12-01T12:25:38.344Z,8.81
2022-12-01T12:28:19.597Z,8.82
2022-12-01T12:30:56.857Z,8.79
2022-12-01T12:33:39.101Z,8.75
2022-12-01T12:36:16.460Z,8.58
2022-12-01T12:39:03.602Z,8.68
2022-12-01T12:41:37.400Z,8.71
2022-12-01T12:44:24.838Z,8.82
2022-12-01T12:47:03.814Z,8.77
2022-12-01T12:49:41.523Z,8.84
2022-12-01T12:52:13.537Z,8.84
2022-12-01T12:54:50.026Z,8.87
2022-12-01T12:57:28.219Z,8.85
2022-12-01T12:59:59.992Z,8.85
2022-12-01T13:02:33.983Z,8.87
2022-12-01T13:05:07.792Z,8.92
2022-12-01T13:07:42.099Z,8.84
2022-12-01T13:10:22.972Z,8.90
2022-12-01T13:12:58.191Z,8.88
2022-12-01T13:15:27.131Z,8.96
2022-12-01T13:17:58.169Z,8.86
2022-12-01T13:20:28.825Z,8.90
2022-12-01T13:22:59.005Z,8.85
2022-12-01T13:25:30.796Z,8.84
2022-12-01T13:28:00.953Z,8.90
2022-12-01T13:30:28.611Z,8.90
2022-12-01T13:33:02.254Z,8.91
2022-12-01T13:35:32.138Z,8.87
2022-12-01T13:38:29.388Z,8.86
2022-12-01T13:41:23.661Z,8.80
2022-12-01T13:44:04.612Z,8.58
2022-12-01T13:46:50.324Z,8.63
2022-12-01T13:49:33.675Z,8.58
2022-12-01T13:52:29.663Z,8.69
2022-12-01T13:55:16.743Z,8.68
2022-12-01T13:57:49.338Z,8.65
2022-12-01T14:00:26.024Z,8.43
2022-12-01T14:03:30.912Z,8.49
2022-12-01T14:06:09.672Z,8.51
2022-12-01T14:08:38.660Z,8.56
2022-12-01T14:11:09.657Z,8.58
2022-12-01T14:13:50.185Z,8.58
2022-12-01T14:16:18.125Z,8.58
2022-12-01T14:18:51.377Z,8.59
2022-12-01T14:21:44.697Z,8.57
2022-12-01T14:24:23.212Z,8.61
2022-12-01T14:26:52.244Z,8.61
2022-12-01T14:29:32.610Z,8.59
2022-12-01T14:32:20.169Z,8.59
2022-12-01T14:34:53.261Z,8.59
2022-12-01T14:37:25.706Z,8.53
2022-12-01T14:39:59.066Z,8.46
2022-12-01T14:42:49.358Z,8.45
2022-12-01T14:45:22.406Z,8.50
2022-12-01T14:47:56.896Z,8.49
2022-12-01T14:50:29.446Z,8.49
2022-12-01T14:53:04.788Z,8.46
2022-12-01T14:55:36.127Z,8.52
2022-12-01T14:58:06.383Z,8.39
2022-12-01T15:00:37.995Z,8.33
2022-12-01T15:03:10.651Z,8.36
2022-12-01T15:05:41.110Z,8.14
2022-12-01T15:08:40.816Z,8.24
2022-12-01T15:11:19.846Z,8.31
2022-12-01T15:13:50.340Z,8.34
2022-12-01T15:16:20.559Z,8.39
2022-12-01T15:18:48.405Z,8.33
2022-12-01T15:21:19.406Z,8.41
2022-12-01T15:23:56.658Z,8.43
2022-12-01T15:26:27.308Z,8.38
2022-12-01T15:29:16.835Z,8.33
2022-12-01T15:31:47.180Z,8.40
2022-12-01T15:34:19.043Z,8.34
2022-12-01T15:36:48.167Z,8.43
2022-12-01T15:39:19.828Z,8.33
2022-12-01T15:41:53.727Z,8.35
2022-12-01T15:44:26.819Z,8.41
2022-12-01T15:46:54.286Z,8.37
2022-12-01T15:49:27.555Z,8.26
2022-12-01T15:51:55.648Z,8.29
2022-12-01T15:54:27.476Z,8.22
2022-12-01T15:56:58.430Z,8.21
2022-12-01T15:59:30.890Z,8.23
2022-12-01T16:01:58.863Z,8.20
2022-12-01T16:04:29.143Z,8.18
2022-12-01T16:06:59.526Z,8.19
2022-12-01T16:09:33.044Z,8.17
2022-12-01T16:12:19.705Z,8.17
2022-12-01T16:14:53.419Z,8.20
2022-12-01T16:17:21.395Z,8.14
2022-12-01T16:19:49.100Z,7.97
2022-12-01T16:22:19.036Z,7.94
2022-12-01T16:24:50.833Z,8.06
2022-12-01T16:27:21.959Z,8.20
2022-12-01T16:29:51.839Z,8.00
2022-12-01T16:32:22.179Z,7.96
2022-12-01T16:34:51.381Z,7.94
2022-12-01T16:37:19.264Z,7.91
2022-12-01T16:39:48.063Z,7.91
2022-12-01T16:42:17.403Z,7.97
2022-12-01T16:44:46.489Z,7.89
2022-12-01T16:47:16.059Z,7.88
2022-12-01T16:49:43.821Z,7.84
2022-12-01T16:55:01.482Z,7.75
2022-12-01T16:57:29.024Z,7.89
2022-12-01T16:59:56.716Z,7.93
2022-12-01T17:02:24.522Z,7.87
2022-12-01T17:04:52.821Z,7.89
2022-12-01T17:07:20.646Z,7.78
2022-12-01T17:09:48.460Z,7.82
2022-12-01T17:12:17.292Z,7.88
2022-12-01T17:14:44.894Z,7.81
2022-12-01T17:17:12.360Z,7.70
2022-12-01T17:19:40.056Z,7.69
2022-12-01T17:22:07.607Z,7.73
2022-12-01T17:24:35.141Z,7.80
2022-12-01T17:27:03.014Z,7.74
2022-12-01T17:29:32.662Z,7.71
2022-12-01T17:32:00.165Z,7.64
2022-12-01T17:34:28.242Z,7.66
2022-12-01T17:36:56.821Z,7.63
2022-12-01T17:39:26.093Z,7.55
2022-12-01T17:41:55.414Z,7.56
2022-12-01T17:44:23.095Z,7.65
2022-12-01T17:46:56.732Z,7.62
2022-12-01T17:49:27.216Z,7.56
2022-12-01T17:51:55.130Z,7.45
2022-12-01T17:54:23.288Z,7.48
2022-12-01T17:56:51.642Z,7.50
2022-12-01T17:59:19.359Z,7.54
2022-12-01T18:01:47.575Z,7.60
2022-12-01T18:04:17.290Z,7.58
2022-12-01T18:06:49.227Z,7.46
2022-12-01T18:09:21.454Z,7.37
2022-12-01T18:11:49.496Z,7.38
2022-12-01T18:14:18.041Z,7.26
2022-12-01T18:16:46.155Z,7.36
2022-12-01T18:19:14.156Z,7.39
2022-12-01T18:21:45.212Z,7.39
2022-12-01T18:24:13.223Z,7.29
2022-12-01T18:26:41.939Z,7.19
2022-12-01T18:29:15.887Z,7.20
2022-12-01T18:31:44.184Z,7.21
2022-12-01T18:34:12.808Z,7.29
2022-12-01T18:36:41.616Z,7.33
2022-12-01T18:39:14.249Z,7.24
2022-12-01T18:41:41.937Z,7.27
2022-12-01T18:44:09.703Z,7.17
2022-12-01T18:46:37.695Z,7.21
2022-12-01T18:49:07.968Z,7.14
2022-12-01T18:51:37.814Z,7.08
2022-12-01T18:54:07.737Z,7.16
2022-12-01T18:56:37.032Z,7.16
2022-12-01T18:59:08.442Z,7.08
2022-12-01T19:01:38.268Z,7.13
2022-12-01T19:04:07.550Z,7.21
2022-12-01T19:06:37.067Z,7.19
2022-12-01T19:09:06.890Z,7.10
2022-12-01T19:11:36.340Z,7.10
2022-12-01T19:14:04.310Z,7.04
2022-12-01T19:16:31.929Z,7.04
2022-12-01T19:18:59.527Z,6.97
2022-12-01T19:21:26.966Z,7.00
2022-12-01T19:23:54.731Z,7.00
2022-12-01T19:26:23.927Z,7.06
2022-12-01T19:28:52.739Z,7.06
2022-12-01T19:31:22.616Z,7.00
2022-12-01T19:33:50.574Z,7.10
2022-12-01T19:36:21.020Z,7.03
2022-12-01T19:38:49.024Z,6.75
2022-12-01T19:41:20.222Z,6.75
2022-12-01T19:43:48.310Z,6.89
2022-12-01T19:46:19.868Z,7.00
2022-12-01T19:48:47.676Z,7.10
2022-12-01T19:51:18.671Z,6.70
2022-12-01T19:53:46.578Z,6.80
2022-12-01T19:56:14.102Z,6.64
2022-12-01T19:58:41.596Z,6.51
2022-12-01T20:01:10.933Z,6.62
2022-12-01T20:03:40.870Z,6.70
2022-12-01T20:06:10.959Z,6.70
2022-12-01T20:08:38.816Z,6.79
2022-12-01T20:11:07.376Z,6.74
2022-12-01T20:13:36.584Z,6.80
2022-12-01T20:16:06.444Z,6.71
2022-12-01T20:18:34.699Z,6.84
2022-12-01T20:21:09.188Z,6.92
2022-12-01T20:23:37.470Z,6.85
2022-12-01T20:26:07.526Z,6.84
2022-12-01T20:28:36.355Z,6.70
2022-12-01T20:31:15.125Z,6.68
2022-12-01T20:33:43.559Z,6.71
2022-12-01T20:36:12.621Z,6.52
2022-12-01T20:38:40.107Z,6.57
2022-12-01T20:41:07.927Z,6.63
2022-12-01T20:43:36.501Z,6.44
2022-12-01T20:46:04.675Z,6.49
2022-12-01T20:48:33.041Z,6.63
2022-12-01T20:51:01.331Z,6.72
2022-12-01T20:53:30.718Z,6.81
2022-12-01T20:55:58.457Z,6.64
2022-12-01T20:58:25.911Z,6.72
2022-12-01T21:00:54.087Z,6.49
2022-12-01T21:03:21.676Z,6.60
2022-12-01T21:05:49.406Z,6.50
2022-12-01T21:08:17.046Z,6.60
2022-12-01T21:10:46.995Z,6.69
2022-12-01T21:13:37.491Z,6.69
2022-12-01T21:16:12.398Z,6.71
2022-12-01T21:18:51.051Z,6.57
2022-12-01T21:21:24.823Z,6.45
2022-12-01T21:24:11.656Z,6.57
2022-12-01T21:26:43.387Z,6.57
2022-12-01T21:29:18.932Z,6.35
2022-12-01T21:31:47.197Z,6.24
2022-12-01T21:34:18.721Z,6.25
2022-12-01T21:36:48.250Z,5.77
2022-12-01T21:39:18.032Z,5.98
2022-12-01T21:41:47.998Z,6.08
2022-12-01T21:44:17.867Z,6.13
2022-12-01T21:46:45.949Z,6.07
2022-12-01T21:49:16.652Z,6.26
2022-12-01T21:51:44.685Z,6.42
2022-12-01T21:54:14.881Z,6.41
2022-12-01T21:56:42.474Z,6.31
2022-12-01T21:59:17.983Z,6.21
2022-12-01T22:01:45.625Z,6.26
2022-12-01T22:04:17.414Z,6.17
2022-12-01T22:06:48.420Z,6.29
2022-12-01T22:09:22.804Z,6.21
2022-12-01T22:11:53.777Z,6.32
2022-12-01T22:14:25.014Z,6.41
2022-12-01T22:16:58.356Z,6.39
2022-12-01T22:19:29.695Z,6.31
2022-12-01T22:22:16.487Z,6.34
2022-12-01T22:24:46.293Z,6.27
2022-12-01T22:27:28.103Z,6.25
2022-12-01T22:29:59.996Z,6.25
2022-12-01T22:32:39.312Z,6.34
2022-12-01T22:35:33.868Z,6.35
2022-12-01T22:38:20.230Z,6.23
2022-12-01T22:40:54.593Z,6.19
2022-12-01T22:43:43.003Z,6.12
2022-12-01T22:46:31.924Z,6.04
2022-12-01T22:49:02.356Z,6.06
2022-12-01T22:51:36.157Z,5.92
2022-12-01T22:54:23.271Z,6.04
2022-12-01T22:56:54.930Z,6.01
2022-12-01T22:59:24.058Z,6.06
2022-12-01T23:01:55.544Z,5.90
2022-12-01T23:04:27.660Z,6.02
2022-12-01T23:07:09.301Z,6.01
2022-12-01T23:09:40.629Z,6.09
2022-12-01T23:12:33.338Z,6.12
2022-12-01T23:15:16.609Z,6.07
2022-12-01T23:17:45.496Z,6.20
2022-12-01T23:20:26.997Z,6.20
2022-12-01T23:22:58.219Z,6.24
2022-12-01T23:25:27.223Z,6.31
2022-12-01T23:27:58.653Z,6.35
2022-12-01T23:30:26.609Z,6.40
2022-12-01T23:33:05.085Z,6.47
2022-12-01T23:35:39.211Z,6.47
2022-12-01T23:38:10.090Z,6.42
2022-12-01T23:40:37.920Z,6.38
2022-12-01T23:43:16.552Z,6.41
2022-12-01T23:45:45.205Z,6.28
2022-12-01T23:48:20.203Z,6.34
2022-12-01T23:50:49.751Z,6.39
2022-12-01T23:53:25.547Z,6.23
2022-12-01T23:55:53.011Z,6.25
2022-12-01T23:58:20.578Z,6.33
